sensor_id;sensor_type;location;lat;lon;timestamp;P1;durP1;ratioP1;P2;durP2;ratioP2
14665;SDS011;7420;53.574;10.040;2022-10-31T00:02:02;38.83;;;29.20;;
14665;SDS011;7420;53.574;10.040;2022-10-31T00:04:27;31.77;;;24.05;;
14665;SDS011;7420;53.574;10.040;2022-10-31T00:06:52;36.70;;;27.50;;
14665;SDS011;7420;53.574;10.040;2022-10-31T00:09:18;34.25;;;26.13;;
14665;SDS011;7420;53.574;10.040;2022-10-31T00:11:43;37.40;;;25.80;;
14665;SDS011;7420;53.574;10.040;2022-10-31T00:14:08;34.78;;;23.88;;
14665;SDS011;7420;53.574;10.040;2022-10-31T00:16:33;36.08;;;26.13;;
14665;SDS011;7420;53.574;10.040;2022-10-31T00:19:00;31.63;;;25.02;;
14665;SDS011;7420;53.574;10.040;2022-10-31T00:21:27;31.98;;;24.90;;
14665;SDS011;7420;53.574;10.040;2022-10-31T00:23:53;33.40;;;25.05;;
14665;SDS011;7420;53.574;10.040;2022-10-31T00:26:19;31.15;;;24.38;;
14665;SDS011;7420;53.574;10.040;2022-10-31T00:28:44;43.75;;;29.10;;
14665;SDS011;7420;53.574;10.040;2022-10-31T00:31:10;41.03;;;25.95;;
14665;SDS011;7420;53.574;10.040;2022-10-31T00:33:37;40.95;;;26.50;;
14665;SDS011;7420;53.574;10.040;2022-10-31T00:36:04;42.97;;;27.17;;
14665;SDS011;7420;53.574;10.040;2022-10-31T00:38:30;36.90;;;24.13;;
14665;SDS011;7420;53.574;10.040;2022-10-31T00:40:56;38.92;;;26.95;;
14665;SDS011;7420;53.574;10.040;2022-10-31T00:43:22;33.90;;;24.20;;
14665;SDS011;7420;53.574;10.040;2022-10-31T00:45:47;42.17;;;24.08;;
14665;SDS011;7420;53.574;10.040;2022-10-31T00:48:12;36.95;;;23.52;;
14665;SDS011;7420;53.574;10.040;2022-10-31T00:50:38;37.00;;;22.60;;
14665;SDS011;7420;53.574;10.040;2022-10-31T00:53:03;35.55;;;23.85;;
14665;SDS011;7420;53.574;10.040;2022-10-31T00:55:29;32.42;;;22.45;;
14665;SDS011;7420;53.574;10.040;2022-10-31T00:57:54;39.38;;;25.52;;
14665;SDS011;7420;53.574;10.040;2022-10-31T01:00:19;42.88;;;25.90;;
14665;SDS011;7420;53.574;10.040;2022-10-31T01:02:45;35.78;;;24.75;;
14665;SDS011;7420;53.574;10.040;2022-10-31T01:05:10;39.40;;;23.73;;
14665;SDS011;7420;53.574;10.040;2022-10-31T01:07:36;36.90;;;24.55;;
14665;SDS011;7420;53.574;10.040;2022-10-31T01:10:03;38.30;;;24.83;;
14665;SDS011;7420;53.574;10.040;2022-10-31T01:12:29;40.03;;;24.98;;
14665;SDS011;7420;53.574;10.040;2022-10-31T01:14:54;36.88;;;24.98;;
14665;SDS011;7420;53.574;10.040;2022-10-31T01:17:19;37.22;;;25.25;;
14665;SDS011;7420;53.574;10.040;2022-10-31T01:19:45;45.75;;;27.17;;
14665;SDS011;7420;53.574;10.040;2022-10-31T01:22:10;44.58;;;26.58;;
14665;SDS011;7420;53.574;10.040;2022-10-31T01:24:35;46.45;;;27.00;;
14665;SDS011;7420;53.574;10.040;2022-10-31T01:27:01;43.63;;;27.88;;
14665;SDS011;7420;53.574;10.040;2022-10-31T01:29:26;43.78;;;27.88;;
14665;SDS011;7420;53.574;10.040;2022-10-31T01:31:51;44.22;;;28.65;;
14665;SDS011;7420;53.574;10.040;2022-10-31T01:34:17;45.00;;;29.58;;
14665;SDS011;7420;53.574;10.040;2022-10-31T01:36:43;47.38;;;28.92;;
14665;SDS011;7420;53.574;10.040;2022-10-31T01:39:14;45.05;;;28.00;;
14665;SDS011;7420;53.574;10.040;2022-10-31T01:41:44;42.83;;;26.98;;
14665;SDS011;7420;53.574;10.040;2022-10-31T01:55:07;42.00;;;26.70;;
14665;SDS011;7420;53.574;10.040;2022-10-31T01:57:37;49.05;;;30.65;;
14665;SDS011;7420;53.574;10.040;2022-10-31T02:00:06;49.70;;;27.35;;
14665;SDS011;7420;53.574;10.040;2022-10-31T02:02:33;48.58;;;30.27;;
14665;SDS011;7420;53.574;10.040;2022-10-31T02:04:59;49.80;;;29.83;;
14665;SDS011;7420;53.574;10.040;2022-10-31T02:07:29;45.47;;;26.95;;
14665;SDS011;7420;53.574;10.040;2022-10-31T02:10:02;44.95;;;27.80;;
14665;SDS011;7420;53.574;10.040;2022-10-31T02:12:29;46.42;;;27.85;;
14665;SDS011;7420;53.574;10.040;2022-10-31T02:14:56;50.30;;;29.52;;
14665;SDS011;7420;53.574;10.040;2022-10-31T02:17:23;53.08;;;29.83;;
14665;SDS011;7420;53.574;10.040;2022-10-31T02:26:14;50.60;;;29.90;;
14665;SDS011;7420;53.574;10.040;2022-10-31T02:28:33;48.50;;;28.48;;
14665;SDS011;7420;53.574;10.040;2022-10-31T02:42:42;51.08;;;29.70;;
14665;SDS011;7420;53.574;10.040;2022-10-31T02:45:21;47.05;;;27.35;;
14665;SDS011;7420;53.574;10.040;2022-10-31T02:47:54;49.42;;;30.10;;
14665;SDS011;7420;53.574;10.040;2022-10-31T02:50:26;56.65;;;29.50;;
14665;SDS011;7420;53.574;10.040;2022-10-31T02:52:54;47.95;;;28.65;;
14665;SDS011;7420;53.574;10.040;2022-10-31T02:57:48;43.72;;;28.13;;
14665;SDS011;7420;53.574;10.040;2022-10-31T03:00:14;44.38;;;29.50;;
14665;SDS011;7420;53.574;10.040;2022-10-31T03:05:27;46.80;;;29.35;;
14665;SDS011;7420;53.574;10.040;2022-10-31T03:18:39;55.53;;;31.55;;
14665;SDS011;7420;53.574;10.040;2022-10-31T03:21:30;53.38;;;30.10;;
14665;SDS011;7420;53.574;10.040;2022-10-31T03:24:05;48.25;;;29.27;;
14665;SDS011;7420;53.574;10.040;2022-10-31T03:26:34;53.70;;;27.77;;
14665;SDS011;7420;53.574;10.040;2022-10-31T03:29:02;47.50;;;29.13;;
14665;SDS011;7420;53.574;10.040;2022-10-31T03:31:31;48.95;;;28.77;;
14665;SDS011;7420;53.574;10.040;2022-10-31T03:34:00;48.08;;;28.75;;
14665;SDS011;7420;53.574;10.040;2022-10-31T03:36:28;54.92;;;31.33;;
14665;SDS011;7420;53.574;10.040;2022-10-31T03:38:56;47.47;;;30.63;;
14665;SDS011;7420;53.574;10.040;2022-10-31T03:41:23;54.08;;;31.20;;
14665;SDS011;7420;53.574;10.040;2022-10-31T03:43:54;47.88;;;28.13;;
14665;SDS011;7420;53.574;10.040;2022-10-31T03:46:23;49.70;;;29.17;;
14665;SDS011;7420;53.574;10.040;2022-10-31T03:48:49;53.70;;;32.15;;
14665;SDS011;7420;53.574;10.040;2022-10-31T03:51:16;51.70;;;30.13;;
14665;SDS011;7420;53.574;10.040;2022-10-31T03:54:32;47.58;;;28.23;;
14665;SDS011;7420;53.574;10.040;2022-10-31T03:56:44;46.20;;;28.23;;
14665;SDS011;7420;53.574;10.040;2022-10-31T03:59:21;56.50;;;29.48;;
14665;SDS011;7420;53.574;10.040;2022-10-31T04:01:52;49.55;;;29.70;;
14665;SDS011;7420;53.574;10.040;2022-10-31T04:04:21;53.22;;;31.08;;
14665;SDS011;7420;53.574;10.040;2022-10-31T04:06:47;52.40;;;30.35;;
14665;SDS011;7420;53.574;10.040;2022-10-31T04:09:14;51.92;;;30.20;;
14665;SDS011;7420;53.574;10.040;2022-10-31T04:11:42;56.08;;;30.48;;
14665;SDS011;7420;53.574;10.040;2022-10-31T04:14:11;55.95;;;31.23;;
14665;SDS011;7420;53.574;10.040;2022-10-31T04:16:38;49.65;;;28.67;;
14665;SDS011;7420;53.574;10.040;2022-10-31T04:19:06;53.03;;;30.60;;
14665;SDS011;7420;53.574;10.040;2022-10-31T04:21:31;51.42;;;29.67;;
14665;SDS011;7420;53.574;10.040;2022-10-31T04:23:56;56.80;;;29.20;;
14665;SDS011;7420;53.574;10.040;2022-10-31T04:26:22;56.90;;;29.13;;
14665;SDS011;7420;53.574;10.040;2022-10-31T04:28:48;50.72;;;31.10;;
14665;SDS011;7420;53.574;10.040;2022-10-31T04:31:13;53.60;;;29.60;;
14665;SDS011;7420;53.574;10.040;2022-10-31T04:33:39;62.72;;;35.83;;
14665;SDS011;7420;53.574;10.040;2022-10-31T04:36:04;57.90;;;31.25;;
14665;SDS011;7420;53.574;10.040;2022-10-31T04:38:30;54.30;;;30.20;;
14665;SDS011;7420;53.574;10.040;2022-10-31T04:40:55;68.30;;;33.15;;
14665;SDS011;7420;53.574;10.040;2022-10-31T04:43:21;59.83;;;32.50;;
14665;SDS011;7420;53.574;10.040;2022-10-31T04:45:46;51.15;;;29.50;;
14665;SDS011;7420;53.574;10.040;2022-10-31T04:48:11;56.83;;;29.48;;
14665;SDS011;7420;53.574;10.040;2022-10-31T04:50:37;60.13;;;30.50;;
14665;SDS011;7420;53.574;10.040;2022-10-31T04:53:02;55.38;;;30.45;;
14665;SDS011;7420;53.574;10.040;2022-10-31T04:55:27;56.08;;;29.00;;
14665;SDS011;7420;53.574;10.040;2022-10-31T04:57:53;58.72;;;32.50;;
14665;SDS011;7420;53.574;10.040;2022-10-31T05:00:19;59.50;;;31.70;;
14665;SDS011;7420;53.574;10.040;2022-10-31T05:02:47;61.15;;;30.63;;
14665;SDS011;7420;53.574;10.040;2022-10-31T05:05:18;55.10;;;29.23;;
14665;SDS011;7420;53.574;10.040;2022-10-31T05:07:45;54.28;;;30.55;;
14665;SDS011;7420;53.574;10.040;2022-10-31T05:10:13;59.33;;;31.00;;
14665;SDS011;7420;53.574;10.040;2022-10-31T05:12:47;59.50;;;31.90;;
14665;SDS011;7420;53.574;10.040;2022-10-31T05:15:17;60.08;;;30.25;;
14665;SDS011;7420;53.574;10.040;2022-10-31T05:17:44;60.47;;;30.13;;
14665;SDS011;7420;53.574;10.040;2022-10-31T05:20:10;55.80;;;30.63;;
14665;SDS011;7420;53.574;10.040;2022-10-31T05:22:36;66.43;;;34.80;;
14665;SDS011;7420;53.574;10.040;2022-10-31T05:25:01;56.70;;;29.90;;
14665;SDS011;7420;53.574;10.040;2022-10-31T05:27:27;67.20;;;31.80;;
14665;SDS011;7420;53.574;10.040;2022-10-31T05:29:53;49.42;;;28.33;;
14665;SDS011;7420;53.574;10.040;2022-10-31T05:32:18;57.05;;;29.42;;
14665;SDS011;7420;53.574;10.040;2022-10-31T05:34:43;58.85;;;30.88;;
14665;SDS011;7420;53.574;10.040;2022-10-31T05:37:08;55.63;;;28.75;;
14665;SDS011;7420;53.574;10.040;2022-10-31T05:39:34;59.65;;;30.35;;
14665;SDS011;7420;53.574;10.040;2022-10-31T05:41:59;56.83;;;27.83;;
14665;SDS011;7420;53.574;10.040;2022-10-31T05:44:24;56.83;;;26.95;;
14665;SDS011;7420;53.574;10.040;2022-10-31T05:46:49;50.67;;;25.98;;
14665;SDS011;7420;53.574;10.040;2022-10-31T05:49:15;56.47;;;27.85;;
14665;SDS011;7420;53.574;10.040;2022-10-31T05:51:42;48.05;;;26.67;;
14665;SDS011;7420;53.574;10.040;2022-10-31T05:54:07;53.15;;;26.58;;
14665;SDS011;7420;53.574;10.040;2022-10-31T05:56:32;51.92;;;26.88;;
14665;SDS011;7420;53.574;10.040;2022-10-31T05:58:58;64.88;;;30.33;;
14665;SDS011;7420;53.574;10.040;2022-10-31T06:01:23;55.42;;;28.48;;
14665;SDS011;7420;53.574;10.040;2022-10-31T06:03:48;60.78;;;29.38;;
14665;SDS011;7420;53.574;10.040;2022-10-31T06:06:14;64.40;;;29.58;;
14665;SDS011;7420;53.574;10.040;2022-10-31T06:08:39;63.65;;;28.85;;
14665;SDS011;7420;53.574;10.040;2022-10-31T06:11:05;60.83;;;28.55;;
14665;SDS011;7420;53.574;10.040;2022-10-31T06:13:30;59.00;;;27.90;;
14665;SDS011;7420;53.574;10.040;2022-10-31T06:15:56;64.63;;;28.35;;
14665;SDS011;7420;53.574;10.040;2022-10-31T06:18:21;60.10;;;28.10;;
14665;SDS011;7420;53.574;10.040;2022-10-31T06:20:46;67.25;;;30.05;;
14665;SDS011;7420;53.574;10.040;2022-10-31T06:23:11;57.80;;;27.20;;
14665;SDS011;7420;53.574;10.040;2022-10-31T06:25:37;61.53;;;26.55;;
14665;SDS011;7420;53.574;10.040;2022-10-31T06:28:02;66.15;;;27.73;;
14665;SDS011;7420;53.574;10.040;2022-10-31T06:30:28;68.68;;;29.23;;
14665;SDS011;7420;53.574;10.040;2022-10-31T06:32:53;62.90;;;29.42;;
14665;SDS011;7420;53.574;10.040;2022-10-31T06:35:19;62.30;;;27.40;;
14665;SDS011;7420;53.574;10.040;2022-10-31T06:37:51;59.17;;;28.20;;
14665;SDS011;7420;53.574;10.040;2022-10-31T06:40:17;66.97;;;29.08;;
14665;SDS011;7420;53.574;10.040;2022-10-31T06:42:42;61.72;;;27.70;;
14665;SDS011;7420;53.574;10.040;2022-10-31T06:45:08;60.42;;;27.23;;
14665;SDS011;7420;53.574;10.040;2022-10-31T06:47:33;59.90;;;27.73;;
14665;SDS011;7420;53.574;10.040;2022-10-31T06:49:58;62.90;;;28.42;;
14665;SDS011;7420;53.574;10.040;2022-10-31T06:52:23;60.63;;;28.48;;
14665;SDS011;7420;53.574;10.040;2022-10-31T06:54:49;58.17;;;26.67;;
14665;SDS011;7420;53.574;10.040;2022-10-31T06:57:14;58.42;;;27.35;;
14665;SDS011;7420;53.574;10.040;2022-10-31T06:59:39;56.80;;;27.35;;
14665;SDS011;7420;53.574;10.040;2022-10-31T07:02:05;62.50;;;28.70;;
14665;SDS011;7420;53.574;10.040;2022-10-31T07:04:30;61.85;;;28.70;;
14665;SDS011;7420;53.574;10.040;2022-10-31T07:06:55;56.58;;;27.67;;
14665;SDS011;7420;53.574;10.040;2022-10-31T07:09:20;70.38;;;31.80;;
14665;SDS011;7420;53.574;10.040;2022-10-31T07:11:46;67.22;;;31.25;;
14665;SDS011;7420;53.574;10.040;2022-10-31T07:14:11;63.58;;;31.52;;
14665;SDS011;7420;53.574;10.040;2022-10-31T07:16:36;84.70;;;34.88;;
14665;SDS011;7420;53.574;10.040;2022-10-31T07:19:02;74.03;;;33.30;;
14665;SDS011;7420;53.574;10.040;2022-10-31T07:21:27;70.75;;;32.83;;
14665;SDS011;7420;53.574;10.040;2022-10-31T07:23:52;73.20;;;32.45;;
14665;SDS011;7420;53.574;10.040;2022-10-31T07:26:18;51.08;;;27.60;;
14665;SDS011;7420;53.574;10.040;2022-10-31T07:28:43;53.20;;;25.17;;
14665;SDS011;7420;53.574;10.040;2022-10-31T07:31:11;58.38;;;27.70;;
14665;SDS011;7420;53.574;10.040;2022-10-31T07:33:36;50.30;;;24.80;;
14665;SDS011;7420;53.574;10.040;2022-10-31T07:36:01;54.95;;;26.45;;
14665;SDS011;7420;53.574;10.040;2022-10-31T07:38:27;45.03;;;23.73;;
14665;SDS011;7420;53.574;10.040;2022-10-31T07:40:52;49.38;;;24.65;;
14665;SDS011;7420;53.574;10.040;2022-10-31T07:43:18;48.65;;;23.55;;
14665;SDS011;7420;53.574;10.040;2022-10-31T07:45:43;45.08;;;22.23;;
14665;SDS011;7420;53.574;10.040;2022-10-31T07:48:09;45.47;;;22.63;;
14665;SDS011;7420;53.574;10.040;2022-10-31T07:50:34;48.30;;;21.98;;
14665;SDS011;7420;53.574;10.040;2022-10-31T07:55:28;42.03;;;22.40;;
14665;SDS011;7420;53.574;10.040;2022-10-31T07:58:00;50.92;;;24.52;;
14665;SDS011;7420;53.574;10.040;2022-10-31T08:00:27;44.45;;;22.70;;
14665;SDS011;7420;53.574;10.040;2022-10-31T08:02:56;41.88;;;22.50;;
14665;SDS011;7420;53.574;10.040;2022-10-31T08:05:25;44.67;;;23.77;;
14665;SDS011;7420;53.574;10.040;2022-10-31T08:07:50;45.30;;;24.05;;
14665;SDS011;7420;53.574;10.040;2022-10-31T08:10:15;50.13;;;25.90;;
14665;SDS011;7420;53.574;10.040;2022-10-31T08:12:41;48.13;;;22.58;;
14665;SDS011;7420;53.574;10.040;2022-10-31T08:15:06;45.88;;;24.13;;
14665;SDS011;7420;53.574;10.040;2022-10-31T08:17:34;41.13;;;22.35;;
14665;SDS011;7420;53.574;10.040;2022-10-31T08:20:00;37.42;;;20.75;;
14665;SDS011;7420;53.574;10.040;2022-10-31T08:22:26;37.22;;;20.20;;
14665;SDS011;7420;53.574;10.040;2022-10-31T08:24:51;30.92;;;19.30;;
14665;SDS011;7420;53.574;10.040;2022-10-31T08:27:16;39.55;;;20.17;;
14665;SDS011;7420;53.574;10.040;2022-10-31T08:29:42;40.50;;;20.77;;
14665;SDS011;7420;53.574;10.040;2022-10-31T08:32:07;36.55;;;20.05;;
14665;SDS011;7420;53.574;10.040;2022-10-31T08:34:33;37.83;;;18.83;;
14665;SDS011;7420;53.574;10.040;2022-10-31T08:36:58;34.83;;;18.65;;
14665;SDS011;7420;53.574;10.040;2022-10-31T08:39:23;37.92;;;19.20;;
14665;SDS011;7420;53.574;10.040;2022-10-31T08:41:48;33.63;;;18.13;;
14665;SDS011;7420;53.574;10.040;2022-10-31T08:44:15;32.25;;;17.35;;
14665;SDS011;7420;53.574;10.040;2022-10-31T08:46:40;31.63;;;18.80;;
14665;SDS011;7420;53.574;10.040;2022-10-31T08:49:06;29.98;;;16.48;;
14665;SDS011;7420;53.574;10.040;2022-10-31T08:51:31;36.75;;;17.73;;
14665;SDS011;7420;53.574;10.040;2022-10-31T08:53:56;35.72;;;21.48;;
14665;SDS011;7420;53.574;10.040;2022-10-31T08:56:22;34.42;;;19.17;;
14665;SDS011;7420;53.574;10.040;2022-10-31T08:58:48;27.98;;;16.90;;
14665;SDS011;7420;53.574;10.040;2022-10-31T09:01:13;35.50;;;19.38;;
14665;SDS011;7420;53.574;10.040;2022-10-31T09:03:39;34.15;;;18.23;;
14665;SDS011;7420;53.574;10.040;2022-10-31T09:06:04;30.55;;;17.92;;
14665;SDS011;7420;53.574;10.040;2022-10-31T09:08:33;37.83;;;17.98;;
14665;SDS011;7420;53.574;10.040;2022-10-31T09:10:59;38.00;;;18.80;;
14665;SDS011;7420;53.574;10.040;2022-10-31T09:13:24;39.83;;;17.05;;
14665;SDS011;7420;53.574;10.040;2022-10-31T09:15:50;28.05;;;15.20;;
14665;SDS011;7420;53.574;10.040;2022-10-31T09:18:16;34.55;;;17.40;;
14665;SDS011;7420;53.574;10.040;2022-10-31T09:20:44;31.75;;;16.92;;
14665;SDS011;7420;53.574;10.040;2022-10-31T09:23:11;28.30;;;15.35;;
14665;SDS011;7420;53.574;10.040;2022-10-31T09:25:38;30.63;;;16.05;;
14665;SDS011;7420;53.574;10.040;2022-10-31T09:28:05;35.55;;;18.15;;
14665;SDS011;7420;53.574;10.040;2022-10-31T09:30:32;33.92;;;16.60;;
14665;SDS011;7420;53.574;10.040;2022-10-31T09:33:00;37.83;;;16.00;;
14665;SDS011;7420;53.574;10.040;2022-10-31T09:35:27;32.33;;;17.17;;
14665;SDS011;7420;53.574;10.040;2022-10-31T09:37:54;31.80;;;16.92;;
14665;SDS011;7420;53.574;10.040;2022-10-31T09:40:24;29.73;;;16.27;;
14665;SDS011;7420;53.574;10.040;2022-10-31T09:49:29;32.33;;;18.65;;
14665;SDS011;7420;53.574;10.040;2022-10-31T09:52:00;32.85;;;16.50;;
14665;SDS011;7420;53.574;10.040;2022-10-31T09:54:36;32.88;;;16.25;;
14665;SDS011;7420;53.574;10.040;2022-10-31T09:57:10;32.22;;;17.20;;
14665;SDS011;7420;53.574;10.040;2022-10-31T09:59:39;30.55;;;15.55;;
14665;SDS011;7420;53.574;10.040;2022-10-31T10:02:29;29.52;;;15.65;;
14665;SDS011;7420;53.574;10.040;2022-10-31T10:05:13;28.17;;;16.55;;
14665;SDS011;7420;53.574;10.040;2022-10-31T10:07:53;31.05;;;17.08;;
14665;SDS011;7420;53.574;10.040;2022-10-31T10:10:29;30.58;;;17.15;;
14665;SDS011;7420;53.574;10.040;2022-10-31T10:13:15;30.27;;;16.23;;
14665;SDS011;7420;53.574;10.040;2022-10-31T10:26:19;34.58;;;19.77;;
14665;SDS011;7420;53.574;10.040;2022-10-31T10:28:50;29.05;;;17.10;;
14665;SDS011;7420;53.574;10.040;2022-10-31T10:31:26;38.80;;;20.33;;
14665;SDS011;7420;53.574;10.040;2022-10-31T10:36:28;29.23;;;18.55;;
14665;SDS011;7420;53.574;10.040;2022-10-31T10:39:04;33.42;;;18.75;;
14665;SDS011;7420;53.574;10.040;2022-10-31T10:41:37;33.10;;;20.25;;
14665;SDS011;7420;53.574;10.040;2022-10-31T10:44:08;32.90;;;20.23;;
14665;SDS011;7420;53.574;10.040;2022-10-31T10:46:47;27.02;;;17.63;;
14665;SDS011;7420;53.574;10.040;2022-10-31T11:00:27;35.35;;;20.60;;
14665;SDS011;7420;53.574;10.040;2022-10-31T11:02:55;32.67;;;22.20;;
14665;SDS011;7420;53.574;10.040;2022-10-31T11:07:59;25.20;;;17.77;;
14665;SDS011;7420;53.574;10.040;2022-10-31T11:10:25;28.30;;;19.45;;
14665;SDS011;7420;53.574;10.040;2022-10-31T11:13:16;27.58;;;18.13;;
14665;SDS011;7420;53.574;10.040;2022-10-31T11:18:28;31.23;;;19.63;;
14665;SDS011;7420;53.574;10.040;2022-10-31T11:20:56;30.80;;;19.80;;
14665;SDS011;7420;53.574;10.040;2022-10-31T11:23:24;31.20;;;18.92;;
14665;SDS011;7420;53.574;10.040;2022-10-31T11:28:19;32.75;;;21.38;;
14665;SDS011;7420;53.574;10.040;2022-10-31T11:30:52;34.25;;;20.23;;
14665;SDS011;7420;53.574;10.040;2022-10-31T11:33:39;32.00;;;20.20;;
14665;SDS011;7420;53.574;10.040;2022-10-31T11:36:29;34.22;;;21.17;;
14665;SDS011;7420;53.574;10.040;2022-10-31T11:38:57;34.80;;;19.55;;
14665;SDS011;7420;53.574;10.040;2022-10-31T11:41:25;26.83;;;18.15;;
14665;SDS011;7420;53.574;10.040;2022-10-31T11:43:54;36.83;;;19.42;;
14665;SDS011;7420;53.574;10.040;2022-10-31T11:48:58;36.78;;;20.20;;
14665;SDS011;7420;53.574;10.040;2022-10-31T11:51:24;38.40;;;19.23;;
14665;SDS011;7420;53.574;10.040;2022-10-31T11:53:54;32.05;;;20.45;;
14665;SDS011;7420;53.574;10.040;2022-10-31T11:56:22;31.17;;;18.85;;
14665;SDS011;7420;53.574;10.040;2022-10-31T11:59:02;35.35;;;22.00;;
14665;SDS011;7420;53.574;10.040;2022-10-31T12:01:30;33.97;;;19.92;;
14665;SDS011;7420;53.574;10.040;2022-10-31T12:06:34;36.90;;;20.45;;
14665;SDS011;7420;53.574;10.040;2022-10-31T12:09:01;28.25;;;19.35;;
14665;SDS011;7420;53.574;10.040;2022-10-31T12:11:31;29.55;;;19.63;;
14665;SDS011;7420;53.574;10.040;2022-10-31T12:16:53;31.80;;;18.63;;
14665;SDS011;7420;53.574;10.040;2022-10-31T12:23:00;37.33;;;20.85;;
14665;SDS011;7420;53.574;10.040;2022-10-31T12:25:37;39.75;;;22.30;;
14665;SDS011;7420;53.574;10.040;2022-10-31T12:31:03;36.97;;;22.65;;
14665;SDS011;7420;53.574;10.040;2022-10-31T12:36:47;35.53;;;23.45;;
14665;SDS011;7420;53.574;10.040;2022-10-31T12:39:22;40.63;;;25.15;;
14665;SDS011;7420;53.574;10.040;2022-10-31T12:41:52;42.07;;;25.43;;
14665;SDS011;7420;53.574;10.040;2022-10-31T12:49:57;34.97;;;20.27;;
14665;SDS011;7420;53.574;10.040;2022-10-31T12:52:40;32.75;;;19.10;;
14665;SDS011;7420;53.574;10.040;2022-10-31T12:58:25;33.80;;;21.73;;
14665;SDS011;7420;53.574;10.040;2022-10-31T13:01:11;35.42;;;20.33;;
14665;SDS011;7420;53.574;10.040;2022-10-31T13:03:43;34.20;;;18.90;;
14665;SDS011;7420;53.574;10.040;2022-10-31T13:06:15;31.85;;;19.95;;
14665;SDS011;7420;53.574;10.040;2022-10-31T13:08:52;33.63;;;19.08;;
14665;SDS011;7420;53.574;10.040;2022-10-31T13:11:22;34.65;;;20.30;;
14665;SDS011;7420;53.574;10.040;2022-10-31T13:14:09;31.63;;;19.58;;
14665;SDS011;7420;53.574;10.040;2022-10-31T13:16:58;31.05;;;19.98;;
14665;SDS011;7420;53.574;10.040;2022-10-31T13:19:27;31.90;;;19.48;;
14665;SDS011;7420;53.574;10.040;2022-10-31T13:24:40;32.40;;;19.75;;
14665;SDS011;7420;53.574;10.040;2022-10-31T13:27:15;28.35;;;17.38;;
14665;SDS011;7420;53.574;10.040;2022-10-31T13:29:46;28.23;;;17.15;;
14665;SDS011;7420;53.574;10.040;2022-10-31T13:32:21;27.08;;;17.05;;
14665;SDS011;7420;53.574;10.040;2022-10-31T13:34:51;24.60;;;16.38;;
14665;SDS011;7420;53.574;10.040;2022-10-31T13:42:57;22.50;;;15.65;;
14665;SDS011;7420;53.574;10.040;2022-10-31T13:45:25;25.88;;;16.45;;
14665;SDS011;7420;53.574;10.040;2022-10-31T13:48:00;20.05;;;14.70;;
14665;SDS011;7420;53.574;10.040;2022-10-31T13:50:39;23.40;;;16.92;;
14665;SDS011;7420;53.574;10.040;2022-10-31T13:53:19;23.42;;;15.95;;
14665;SDS011;7420;53.574;10.040;2022-10-31T13:55:46;18.98;;;15.55;;
14665;SDS011;7420;53.574;10.040;2022-10-31T13:58:26;18.90;;;14.43;;
14665;SDS011;7420;53.574;10.040;2022-10-31T14:03:45;16.15;;;12.98;;
14665;SDS011;7420;53.574;10.040;2022-10-31T14:06:12;19.40;;;14.20;;
14665;SDS011;7420;53.574;10.040;2022-10-31T14:08:41;18.13;;;13.07;;
14665;SDS011;7420;53.574;10.040;2022-10-31T14:11:18;17.27;;;13.65;;
14665;SDS011;7420;53.574;10.040;2022-10-31T14:13:49;18.25;;;13.38;;
14665;SDS011;7420;53.574;10.040;2022-10-31T14:16:18;18.77;;;14.05;;
14665;SDS011;7420;53.574;10.040;2022-10-31T14:18:59;26.63;;;19.35;;
14665;SDS011;7420;53.574;10.040;2022-10-31T14:24:12;18.13;;;14.25;;
14665;SDS011;7420;53.574;10.040;2022-10-31T14:26:38;18.55;;;12.40;;
14665;SDS011;7420;53.574;10.040;2022-10-31T14:31:39;15.45;;;11.95;;
14665;SDS011;7420;53.574;10.040;2022-10-31T14:38:07;21.92;;;13.65;;
14665;SDS011;7420;53.574;10.040;2022-10-31T14:40:33;19.48;;;12.52;;
14665;SDS011;7420;53.574;10.040;2022-10-31T14:51:46;23.45;;;14.90;;
14665;SDS011;7420;53.574;10.040;2022-10-31T14:54:13;24.02;;;14.73;;
14665;SDS011;7420;53.574;10.040;2022-10-31T14:56:52;20.33;;;13.30;;
14665;SDS011;7420;53.574;10.040;2022-10-31T14:59:26;21.38;;;12.93;;
14665;SDS011;7420;53.574;10.040;2022-10-31T15:02:07;27.35;;;16.48;;
14665;SDS011;7420;53.574;10.040;2022-10-31T15:04:38;24.50;;;15.73;;
14665;SDS011;7420;53.574;10.040;2022-10-31T15:07:05;24.80;;;13.52;;
14665;SDS011;7420;53.574;10.040;2022-10-31T15:09:37;20.60;;;13.00;;
14665;SDS011;7420;53.574;10.040;2022-10-31T15:12:24;22.92;;;14.30;;
14665;SDS011;7420;53.574;10.040;2022-10-31T15:14:52;22.77;;;13.93;;
14665;SDS011;7420;53.574;10.040;2022-10-31T15:17:18;23.58;;;14.77;;
14665;SDS011;7420;53.574;10.040;2022-10-31T15:19:44;24.65;;;14.35;;
14665;SDS011;7420;53.574;10.040;2022-10-31T15:22:13;23.05;;;13.98;;
14665;SDS011;7420;53.574;10.040;2022-10-31T15:24:40;24.92;;;14.32;;
14665;SDS011;7420;53.574;10.040;2022-10-31T15:27:10;26.20;;;15.65;;
14665;SDS011;7420;53.574;10.040;2022-10-31T15:29:47;23.00;;;14.90;;
14665;SDS011;7420;53.574;10.040;2022-10-31T15:32:19;29.33;;;16.70;;
14665;SDS011;7420;53.574;10.040;2022-10-31T15:34:47;24.33;;;16.70;;
14665;SDS011;7420;53.574;10.040;2022-10-31T15:37:15;27.10;;;16.45;;
14665;SDS011;7420;53.574;10.040;2022-10-31T15:39:42;25.05;;;14.88;;
14665;SDS011;7420;53.574;10.040;2022-10-31T15:42:22;23.60;;;15.05;;
14665;SDS011;7420;53.574;10.040;2022-10-31T15:44:55;25.02;;;15.93;;
14665;SDS011;7420;53.574;10.040;2022-10-31T15:47:23;29.67;;;17.20;;
14665;SDS011;7420;53.574;10.040;2022-10-31T15:49:52;29.85;;;16.77;;
14665;SDS011;7420;53.574;10.040;2022-10-31T15:54:57;30.90;;;17.45;;
14665;SDS011;7420;53.574;10.040;2022-10-31T15:57:25;28.10;;;17.08;;
14665;SDS011;7420;53.574;10.040;2022-10-31T15:59:51;27.30;;;16.25;;
14665;SDS011;7420;53.574;10.040;2022-10-31T16:02:22;24.45;;;15.18;;
14665;SDS011;7420;53.574;10.040;2022-10-31T16:04:50;26.95;;;15.65;;
14665;SDS011;7420;53.574;10.040;2022-10-31T16:07:23;29.05;;;17.42;;
14665;SDS011;7420;53.574;10.040;2022-10-31T16:09:58;27.00;;;13.93;;
14665;SDS011;7420;53.574;10.040;2022-10-31T16:12:29;25.77;;;14.27;;
14665;SDS011;7420;53.574;10.040;2022-10-31T16:14:58;25.65;;;15.48;;
14665;SDS011;7420;53.574;10.040;2022-10-31T16:17:24;34.40;;;18.25;;
14665;SDS011;7420;53.574;10.040;2022-10-31T16:19:59;27.67;;;15.23;;
14665;SDS011;7420;53.574;10.040;2022-10-31T16:22:26;28.15;;;15.30;;
14665;SDS011;7420;53.574;10.040;2022-10-31T16:25:13;30.35;;;16.85;;
14665;SDS011;7420;53.574;10.040;2022-10-31T16:27:51;27.20;;;14.80;;
14665;SDS011;7420;53.574;10.040;2022-10-31T16:32:56;28.33;;;15.05;;
14665;SDS011;7420;53.574;10.040;2022-10-31T16:35:35;29.17;;;14.75;;
14665;SDS011;7420;53.574;10.040;2022-10-31T16:38:03;31.65;;;14.77;;
14665;SDS011;7420;53.574;10.040;2022-10-31T16:40:29;30.80;;;16.20;;
14665;SDS011;7420;53.574;10.040;2022-10-31T16:42:56;22.92;;;13.50;;
14665;SDS011;7420;53.574;10.040;2022-10-31T16:45:25;25.35;;;13.00;;
14665;SDS011;7420;53.574;10.040;2022-10-31T16:47:52;28.77;;;15.70;;
14665;SDS011;7420;53.574;10.040;2022-10-31T16:50:19;31.48;;;15.23;;
14665;SDS011;7420;53.574;10.040;2022-10-31T16:52:45;30.30;;;15.02;;
14665;SDS011;7420;53.574;10.040;2022-10-31T16:55:12;24.70;;;12.77;;
14665;SDS011;7420;53.574;10.040;2022-10-31T16:57:42;29.05;;;15.38;;